sensor_id;sensor_type;location;lat;lon;timestamp;temperature;humidity
23609;DHT22;11982;50.810;4.442;2023-04-25T00:01:20;8.20;99.90
23609;DHT22;11982;50.810;4.442;2023-04-25T00:03:47;8.30;99.90
23609;DHT22;11982;50.810;4.442;2023-04-25T00:06:13;8.30;99.90
23609;DHT22;11982;50.810;4.442;2023-04-25T00:08:39;8.30;99.90
23609;DHT22;11982;50.810;4.442;2023-04-25T00:11:05;8.40;99.90
23609;DHT22;11982;50.810;4.442;2023-04-25T00:13:32;8.50;99.90
23609;DHT22;11982;50.810;4.442;2023-04-25T00:15:58;8.30;99.90
23609;DHT22;11982;50.810;4.442;2023-04-25T00:18:24;8.40;99.90
23609;DHT22;11982;50.810;4.442;2023-04-25T00:20:50;8.40;99.90
23609;DHT22;11982;50.810;4.442;2023-04-25T00:23:16;8.50;99.90
23609;DHT22;11982;50.810;4.442;2023-04-25T00:25:46;8.60;99.90
23609;DHT22;11982;50.810;4.442;2023-04-25T00:28:12;8.50;99.90
23609;DHT22;11982;50.810;4.442;2023-04-25T00:30:39;8.40;99.90
23609;DHT22;11982;50.810;4.442;2023-04-25T00:33:05;8.30;99.90
23609;DHT22;11982;50.810;4.442;2023-04-25T00:35:31;8.20;99.90
23609;DHT22;11982;50.810;4.442;2023-04-25T00:37:56;8.30;99.90
23609;DHT22;11982;50.810;4.442;2023-04-25T00:40:22;8.30;99.90
23609;DHT22;11982;50.810;4.442;2023-04-25T00:42:48;8.20;99.90
23609;DHT22;11982;50.810;4.442;2023-04-25T00:45:14;8.10;99.90
23609;DHT22;11982;50.810;4.442;2023-04-25T00:47:41;8.00;99.90
23609;DHT22;11982;50.810;4.442;2023-04-25T00:50:07;7.80;99.90
23609;DHT22;11982;50.810;4.442;2023-04-25T00:52:34;7.70;99.90
23609;DHT22;11982;50.810;4.442;2023-04-25T00:55:00;7.70;99.90
23609;DHT22;11982;50.810;4.442;2023-04-25T00:57:25;7.60;99.90
23609;DHT22;11982;50.810;4.442;2023-04-25T00:59:52;7.60;99.90
23609;DHT22;11982;50.810;4.442;2023-04-25T01:02:19;7.50;99.90
23609;DHT22;11982;50.810;4.442;2023-04-25T01:04:46;7.50;99.90
23609;DHT22;11982;50.810;4.442;2023-04-25T01:07:12;7.50;99.90
23609;DHT22;11982;50.810;4.442;2023-04-25T01:09:39;7.50;99.90
23609;DHT22;11982;50.810;4.442;2023-04-25T01:12:05;7.60;99.90
23609;DHT22;11982;50.810;4.442;2023-04-25T01:14:31;7.50;99.90
23609;DHT22;11982;50.810;4.442;2023-04-25T01:16:56;7.50;99.90
23609;DHT22;11982;50.810;4.442;2023-04-25T01:19:23;7.60;99.90
23609;DHT22;11982;50.810;4.442;2023-04-25T01:21:50;7.50;99.90
23609;DHT22;11982;50.810;4.442;2023-04-25T01:24:16;7.50;99.90
23609;DHT22;11982;50.810;4.442;2023-04-25T01:26:42;7.60;99.90
23609;DHT22;11982;50.810;4.442;2023-04-25T01:29:17;7.70;99.90
23609;DHT22;11982;50.810;4.442;2023-04-25T01:31:43;7.70;99.90
23609;DHT22;11982;50.810;4.442;2023-04-25T01:34:09;7.60;99.90
23609;DHT22;11982;50.810;4.442;2023-04-25T01:36:35;7.60;99.90
23609;DHT22;11982;50.810;4.442;2023-04-25T01:39:02;7.70;99.90
23609;DHT22;11982;50.810;4.442;2023-04-25T01:41:28;7.70;99.90
23609;DHT22;11982;50.810;4.442;2023-04-25T01:43:54;7.80;99.90
23609;DHT22;11982;50.810;4.442;2023-04-25T01:46:19;7.80;99.90
23609;DHT22;11982;50.810;4.442;2023-04-25T01:48:45;7.60;99.90
23609;DHT22;11982;50.810;4.442;2023-04-25T01:51:11;7.50;99.90
23609;DHT22;11982;50.810;4.442;2023-04-25T01:53:38;7.40;99.90
23609;DHT22;11982;50.810;4.442;2023-04-25T01:56:04;7.50;99.90
23609;DHT22;11982;50.810;4.442;2023-04-25T01:58:30;7.50;99.90
23609;DHT22;11982;50.810;4.442;2023-04-25T02:00:56;7.40;99.90
23609;DHT22;11982;50.810;4.442;2023-04-25T02:03:21;7.30;99.90
23609;DHT22;11982;50.810;4.442;2023-04-25T02:05:47;7.30;99.90
23609;DHT22;11982;50.810;4.442;2023-04-25T02:08:13;7.20;99.90
23609;DHT22;11982;50.810;4.442;2023-04-25T02:10:39;7.20;99.90
23609;DHT22;11982;50.810;4.442;2023-04-25T02:13:04;7.20;99.90
23609;DHT22;11982;50.810;4.442;2023-04-25T02:15:31;7.20;99.90
23609;DHT22;11982;50.810;4.442;2023-04-25T02:17:57;7.10;99.90
23609;DHT22;11982;50.810;4.442;2023-04-25T02:20:24;7.00;99.90
23609;DHT22;11982;50.810;4.442;2023-04-25T02:22:50;7.00;99.90
23609;DHT22;11982;50.810;4.442;2023-04-25T02:25:17;7.10;99.90
23609;DHT22;11982;50.810;4.442;2023-04-25T02:27:43;7.00;99.90
23609;DHT22;11982;50.810;4.442;2023-04-25T02:30:09;7.10;99.90
23609;DHT22;11982;50.810;4.442;2023-04-25T02:32:35;7.00;99.90
23609;DHT22;11982;50.810;4.442;2023-04-25T02:35:01;7.10;99.90
23609;DHT22;11982;50.810;4.442;2023-04-25T02:37:31;7.10;99.90
23609;DHT22;11982;50.810;4.442;2023-04-25T02:39:57;7.00;99.90
23609;DHT22;11982;50.810;4.442;2023-04-25T02:42:23;7.00;99.90
23609;DHT22;11982;50.810;4.442;2023-04-25T02:44:48;7.00;99.90
23609;DHT22;11982;50.810;4.442;2023-04-25T02:47:14;7.10;99.90
23609;DHT22;11982;50.810;4.442;2023-04-25T02:49:40;7.10;99.90
23609;DHT22;11982;50.810;4.442;2023-04-25T02:52:06;7.10;99.90
23609;DHT22;11982;50.810;4.442;2023-04-25T02:54:32;7.10;99.90
23609;DHT22;11982;50.810;4.442;2023-04-25T02:56:57;7.10;99.90
23609;DHT22;11982;50.810;4.442;2023-04-25T02:59:23;7.30;99.90
23609;DHT22;11982;50.810;4.442;2023-04-25T03:01:49;7.50;99.90
23609;DHT22;11982;50.810;4.442;2023-04-25T03:04:14;7.60;99.90
23609;DHT22;11982;50.810;4.442;2023-04-25T03:06:40;7.80;99.90
23609;DHT22;11982;50.810;4.442;2023-04-25T03:09:06;7.80;99.90
23609;DHT22;11982;50.810;4.442;2023-04-25T03:11:32;7.80;99.90
23609;DHT22;11982;50.810;4.442;2023-04-25T03:13:58;7.90;99.90
23609;DHT22;11982;50.810;4.442;2023-04-25T03:16:24;7.90;99.90
23609;DHT22;11982;50.810;4.442;2023-04-25T03:18:49;7.90;99.90
23609;DHT22;11982;50.810;4.442;2023-04-25T03:21:16;8.10;99.90
23609;DHT22;11982;50.810;4.442;2023-04-25T03:23:42;8.20;99.90
23609;DHT22;11982;50.810;4.442;2023-04-25T03:26:08;8.00;99.90
23609;DHT22;11982;50.810;4.442;2023-04-25T03:28:33;7.80;99.90
23609;DHT22;11982;50.810;4.442;2023-04-25T03:30:59;7.90;99.90
23609;DHT22;11982;50.810;4.442;2023-04-25T03:33:25;7.90;99.90
23609;DHT22;11982;50.810;4.442;2023-04-25T03:35:51;8.10;99.90
23609;DHT22;11982;50.810;4.442;2023-04-25T03:38:17;7.90;99.90
23609;DHT22;11982;50.810;4.442;2023-04-25T03:40:42;7.80;99.90
23609;DHT22;11982;50.810;4.442;2023-04-25T03:43:08;7.90;99.90
23609;DHT22;11982;50.810;4.442;2023-04-25T03:45:34;7.60;99.90
23609;DHT22;11982;50.810;4.442;2023-04-25T03:48:00;7.30;99.90
23609;DHT22;11982;50.810;4.442;2023-04-25T03:50:25;7.00;99.90
23609;DHT22;11982;50.810;4.442;2023-04-25T03:52:51;7.00;99.90
23609;DHT22;11982;50.810;4.442;2023-04-25T03:55:17;6.90;99.90
23609;DHT22;11982;50.810;4.442;2023-04-25T03:57:42;6.80;99.90
23609;DHT22;11982;50.810;4.442;2023-04-25T04:00:08;6.70;99.90
23609;DHT22;11982;50.810;4.442;2023-04-25T04:02:35;6.70;99.90
23609;DHT22;11982;50.810;4.442;2023-04-25T04:05:02;6.70;99.90
23609;DHT22;11982;50.810;4.442;2023-04-25T04:07:28;6.70;99.90
23609;DHT22;11982;50.810;4.442;2023-04-25T04:09:53;6.70;99.90
23609;DHT22;11982;50.810;4.442;2023-04-25T04:12:19;6.70;99.90
23609;DHT22;11982;50.810;4.442;2023-04-25T04:14:45;6.60;99.90
23609;DHT22;11982;50.810;4.442;2023-04-25T04:17:10;6.60;99.90
23609;DHT22;11982;50.810;4.442;2023-04-25T04:19:36;6.60;99.90
23609;DHT22;11982;50.810;4.442;2023-04-25T04:22:02;6.50;99.90
23609;DHT22;11982;50.810;4.442;2023-04-25T04:24:28;6.50;99.90
23609;DHT22;11982;50.810;4.442;2023-04-25T04:26:53;6.40;99.90
23609;DHT22;11982;50.810;4.442;2023-04-25T04:29:19;6.50;99.90
23609;DHT22;11982;50.810;4.442;2023-04-25T04:31:50;6.60;99.90
23609;DHT22;11982;50.810;4.442;2023-04-25T04:34:16;6.60;99.90
23609;DHT22;11982;50.810;4.442;2023-04-25T04:36:43;6.60;99.90
23609;DHT22;11982;50.810;4.442;2023-04-25T04:39:10;6.60;99.90
23609;DHT22;11982;50.810;4.442;2023-04-25T04:41:36;6.70;99.90
23609;DHT22;11982;50.810;4.442;2023-04-25T04:44:02;6.90;99.90
23609;DHT22;11982;50.810;4.442;2023-04-25T04:46:28;6.80;99.90
23609;DHT22;11982;50.810;4.442;2023-04-25T04:48:54;6.90;99.90
23609;DHT22;11982;50.810;4.442;2023-04-25T04:51:21;6.80;99.90
23609;DHT22;11982;50.810;4.442;2023-04-25T04:53:47;6.80;99.90
23609;DHT22;11982;50.810;4.442;2023-04-25T04:56:12;6.80;99.90
23609;DHT22;11982;50.810;4.442;2023-04-25T04:58:38;6.80;99.90
23609;DHT22;11982;50.810;4.442;2023-04-25T05:01:04;6.90;99.90
23609;DHT22;11982;50.810;4.442;2023-04-25T05:03:30;6.90;99.90
23609;DHT22;11982;50.810;4.442;2023-04-25T05:05:56;7.10;99.90
23609;DHT22;11982;50.810;4.442;2023-04-25T05:08:21;7.20;99.90
23609;DHT22;11982;50.810;4.442;2023-04-25T05:10:47;7.20;99.90
23609;DHT22;11982;50.810;4.442;2023-04-25T05:13:13;7.20;99.90
23609;DHT22;11982;50.810;4.442;2023-04-25T05:15:38;7.20;99.90
23609;DHT22;11982;50.810;4.442;2023-04-25T05:18:04;7.30;99.90
23609;DHT22;11982;50.810;4.442;2023-04-25T05:20:29;7.10;99.90
23609;DHT22;11982;50.810;4.442;2023-04-25T05:22:55;7.00;99.90
23609;DHT22;11982;50.810;4.442;2023-04-25T05:25:21;7.00;99.90
23609;DHT22;11982;50.810;4.442;2023-04-25T05:27:46;7.00;99.90
23609;DHT22;11982;50.810;4.442;2023-04-25T05:30:12;7.00;99.90
23609;DHT22;11982;50.810;4.442;2023-04-25T05:32:38;7.00;99.90
23609;DHT22;11982;50.810;4.442;2023-04-25T05:35:04;7.10;99.90
23609;DHT22;11982;50.810;4.442;2023-04-25T05:37:32;6.90;99.90
23609;DHT22;11982;50.810;4.442;2023-04-25T05:39:58;6.70;99.90
23609;DHT22;11982;50.810;4.442;2023-04-25T05:42:24;6.50;99.90
23609;DHT22;11982;50.810;4.442;2023-04-25T05:44:49;6.50;99.90
23609;DHT22;11982;50.810;4.442;2023-04-25T05:47:15;6.60;99.90
23609;DHT22;11982;50.810;4.442;2023-04-25T05:49:41;6.60;99.90
23609;DHT22;11982;50.810;4.442;2023-04-25T05:52:06;6.60;99.90
23609;DHT22;11982;50.810;4.442;2023-04-25T05:54:32;6.70;99.90
23609;DHT22;11982;50.810;4.442;2023-04-25T05:56:57;6.80;99.90
23609;DHT22;11982;50.810;4.442;2023-04-25T05:59:23;6.90;99.90
23609;DHT22;11982;50.810;4.442;2023-04-25T06:01:49;7.00;99.90
23609;DHT22;11982;50.810;4.442;2023-04-25T06:04:14;7.10;99.90
23609;DHT22;11982;50.810;4.442;2023-04-25T06:06:43;7.20;99.90
23609;DHT22;11982;50.810;4.442;2023-04-25T06:09:09;7.30;99.90
23609;DHT22;11982;50.810;4.442;2023-04-25T06:11:35;7.40;99.90
23609;DHT22;11982;50.810;4.442;2023-04-25T06:14:00;7.60;99.90
23609;DHT22;11982;50.810;4.442;2023-04-25T06:16:26;7.60;99.90
23609;DHT22;11982;50.810;4.442;2023-04-25T06:18:52;7.60;99.90
23609;DHT22;11982;50.810;4.442;2023-04-25T06:21:21;7.30;99.90
23609;DHT22;11982;50.810;4.442;2023-04-25T06:23:46;7.30;99.90
23609;DHT22;11982;50.810;4.442;2023-04-25T06:26:12;7.30;99.90
23609;DHT22;11982;50.810;4.442;2023-04-25T06:28:38;7.40;99.90
23609;DHT22;11982;50.810;4.442;2023-04-25T06:31:04;7.40;99.90
23609;DHT22;11982;50.810;4.442;2023-04-25T06:33:29;7.40;99.90
23609;DHT22;11982;50.810;4.442;2023-04-25T06:35:55;7.60;99.90
23609;DHT22;11982;50.810;4.442;2023-04-25T06:38:21;7.60;99.90
23609;DHT22;11982;50.810;4.442;2023-04-25T06:40:47;7.60;99.90
23609;DHT22;11982;50.810;4.442;2023-04-25T06:43:12;7.70;99.90
23609;DHT22;11982;50.810;4.442;2023-04-25T06:45:38;7.70;99.90
23609;DHT22;11982;50.810;4.442;2023-04-25T06:48:04;7.70;99.90
23609;DHT22;11982;50.810;4.442;2023-04-25T06:50:29;7.90;99.90
23609;DHT22;11982;50.810;4.442;2023-04-25T06:52:55;7.90;99.90
23609;DHT22;11982;50.810;4.442;2023-04-25T06:55:21;7.90;99.90
23609;DHT22;11982;50.810;4.442;2023-04-25T06:57:46;7.80;99.90
23609;DHT22;11982;50.810;4.442;2023-04-25T07:00:13;8.00;99.90
23609;DHT22;11982;50.810;4.442;2023-04-25T07:02:38;8.00;99.90
23609;DHT22;11982;50.810;4.442;2023-04-25T07:05:04;8.10;99.90
23609;DHT22;11982;50.810;4.442;2023-04-25T07:07:30;8.10;99.90
23609;DHT22;11982;50.810;4.442;2023-04-25T07:09:56;8.20;99.90
23609;DHT22;11982;50.810;4.442;2023-04-25T07:12:22;7.90;99.90
23609;DHT22;11982;50.810;4.442;2023-04-25T07:14:47;7.80;99.90
23609;DHT22;11982;50.810;4.442;2023-04-25T07:17:13;7.90;99.90
23609;DHT22;11982;50.810;4.442;2023-04-25T07:19:39;8.10;99.90
23609;DHT22;11982;50.810;4.442;2023-04-25T07:22:06;8.30;99.90
23609;DHT22;11982;50.810;4.442;2023-04-25T07:24:32;8.40;99.90
23609;DHT22;11982;50.810;4.442;2023-04-25T07:26:58;8.20;99.90
23609;DHT22;11982;50.810;4.442;2023-04-25T07:29:24;8.20;99.90
23609;DHT22;11982;50.810;4.442;2023-04-25T07:31:50;8.30;99.90
23609;DHT22;11982;50.810;4.442;2023-04-25T07:34:18;8.40;99.90
23609;DHT22;11982;50.810;4.442;2023-04-25T07:36:44;8.80;99.90
23609;DHT22;11982;50.810;4.442;2023-04-25T07:39:10;9.10;99.90
23609;DHT22;11982;50.810;4.442;2023-04-25T07:41:36;9.30;99.90
23609;DHT22;11982;50.810;4.442;2023-04-25T07:44:01;9.40;99.90
23609;DHT22;11982;50.810;4.442;2023-04-25T07:46:27;9.60;99.90
23609;DHT22;11982;50.810;4.442;2023-04-25T07:48:53;9.60;99.90
23609;DHT22;11982;50.810;4.442;2023-04-25T07:51:18;9.20;99.90
23609;DHT22;11982;50.810;4.442;2023-04-25T07:53:45;9.50;99.90
23609;DHT22;11982;50.810;4.442;2023-04-25T07:56:11;9.20;99.90
23609;DHT22;11982;50.810;4.442;2023-04-25T07:58:37;9.30;99.90
23609;DHT22;11982;50.810;4.442;2023-04-25T08:01:03;9.30;99.90
23609;DHT22;11982;50.810;4.442;2023-04-25T08:03:28;9.20;99.90
23609;DHT22;11982;50.810;4.442;2023-04-25T08:05:54;9.50;99.90
23609;DHT22;11982;50.810;4.442;2023-04-25T08:11:20;9.60;99.90
23609;DHT22;11982;50.810;4.442;2023-04-25T08:13:52;9.80;99.90
23609;DHT22;11982;50.810;4.442;2023-04-25T08:16:17;9.60;99.90
23609;DHT22;11982;50.810;4.442;2023-04-25T08:18:43;9.40;99.90
23609;DHT22;11982;50.810;4.442;2023-04-25T08:21:09;9.70;99.90
23609;DHT22;11982;50.810;4.442;2023-04-25T08:23:37;9.90;99.90
23609;DHT22;11982;50.810;4.442;2023-04-25T08:26:02;9.90;99.90
23609;DHT22;11982;50.810;4.442;2023-04-25T08:28:28;10.00;99.90
23609;DHT22;11982;50.810;4.442;2023-04-25T08:30:54;10.00;99.90
23609;DHT22;11982;50.810;4.442;2023-04-25T08:33:20;10.20;99.90
23609;DHT22;11982;50.810;4.442;2023-04-25T08:35:45;10.10;99.90
23609;DHT22;11982;50.810;4.442;2023-04-25T08:38:11;10.00;99.90
23609;DHT22;11982;50.810;4.442;2023-04-25T08:40:38;10.30;99.90
23609;DHT22;11982;50.810;4.442;2023-04-25T08:43:06;10.10;99.90
23609;DHT22;11982;50.810;4.442;2023-04-25T08:45:39;10.20;99.90
23609;DHT22;11982;50.810;4.442;2023-04-25T08:48:10;10.10;99.90
23609;DHT22;11982;50.810;4.442;2023-04-25T08:50:40;9.70;99.90
23609;DHT22;11982;50.810;4.442;2023-04-25T08:53:09;9.40;99.90
23609;DHT22;11982;50.810;4.442;2023-04-25T08:55:41;9.20;99.90
23609;DHT22;11982;50.810;4.442;2023-04-25T08:58:07;9.50;99.90
23609;DHT22;11982;50.810;4.442;2023-04-25T09:00:35;9.70;99.90
23609;DHT22;11982;50.810;4.442;2023-04-25T09:03:01;10.20;99.90
23609;DHT22;11982;50.810;4.442;2023-04-25T09:05:28;10.60;99.90
23609;DHT22;11982;50.810;4.442;2023-04-25T09:07:54;10.80;99.90
23609;DHT22;11982;50.810;4.442;2023-04-25T09:10:22;10.80;99.90
23609;DHT22;11982;50.810;4.442;2023-04-25T09:13:10;10.60;99.90
23609;DHT22;11982;50.810;4.442;2023-04-25T09:15:53;10.60;99.90
23609;DHT22;11982;50.810;4.442;2023-04-25T09:18:30;10.50;99.90
23609;DHT22;11982;50.810;4.442;2023-04-25T09:21:09;10.80;99.90
23609;DHT22;11982;50.810;4.442;2023-04-25T09:23:46;11.00;99.90
23609;DHT22;11982;50.810;4.442;2023-04-25T09:26:16;10.70;99.90
23609;DHT22;11982;50.810;4.442;2023-04-25T09:28:43;10.80;99.90
23609;DHT22;11982;50.810;4.442;2023-04-25T09:31:10;10.60;99.90
23609;DHT22;11982;50.810;4.442;2023-04-25T09:33:36;10.30;99.90
23609;DHT22;11982;50.810;4.442;2023-04-25T09:36:03;10.20;99.90
23609;DHT22;11982;50.810;4.442;2023-04-25T09:38:31;10.10;99.90
23609;DHT22;11982;50.810;4.442;2023-04-25T09:40:57;10.20;99.90
23609;DHT22;11982;50.810;4.442;2023-04-25T09:43:24;10.20;99.90
23609;DHT22;11982;50.810;4.442;2023-04-25T09:45:52;10.30;99.90
23609;DHT22;11982;50.810;4.442;2023-04-25T09:48:19;9.90;99.90
23609;DHT22;11982;50.810;4.442;2023-04-25T09:53:44;10.10;99.90
23609;DHT22;11982;50.810;4.442;2023-04-25T09:56:12;10.10;99.90
23609;DHT22;11982;50.810;4.442;2023-04-25T09:58:39;10.20;99.90
23609;DHT22;11982;50.810;4.442;2023-04-25T10:01:07;10.40;99.90
23609;DHT22;11982;50.810;4.442;2023-04-25T10:03:34;10.60;99.90
23609;DHT22;11982;50.810;4.442;2023-04-25T10:06:02;10.40;99.90
23609;DHT22;11982;50.810;4.442;2023-04-25T10:08:36;10.50;99.90
23609;DHT22;11982;50.810;4.442;2023-04-25T10:11:07;10.70;99.90
23609;DHT22;11982;50.810;4.442;2023-04-25T10:13:34;11.00;99.90
23609;DHT22;11982;50.810;4.442;2023-04-25T10:16:03;11.50;99.90
23609;DHT22;11982;50.810;4.442;2023-04-25T10:18:30;11.50;99.90
23609;DHT22;11982;50.810;4.442;2023-04-25T10:21:01;11.50;99.90
23609;DHT22;11982;50.810;4.442;2023-04-25T10:23:29;11.10;99.90
23609;DHT22;11982;50.810;4.442;2023-04-25T10:25:55;10.70;99.90
23609;DHT22;11982;50.810;4.442;2023-04-25T10:28:22;10.50;99.90
23609;DHT22;11982;50.810;4.442;2023-04-25T10:30:58;10.20;99.90
23609;DHT22;11982;50.810;4.442;2023-04-25T10:36:12;10.80;99.90
23609;DHT22;11982;50.810;4.442;2023-04-25T10:38:39;11.30;99.90
23609;DHT22;11982;50.810;4.442;2023-04-25T10:41:07;12.00;99.90
23609;DHT22;11982;50.810;4.442;2023-04-25T10:46:25;12.50;99.90
23609;DHT22;11982;50.810;4.442;2023-04-25T10:48:56;12.00;99.90
23609;DHT22;11982;50.810;4.442;2023-04-25T10:51:24;11.80;99.90
23609;DHT22;11982;50.810;4.442;2023-04-25T10:53:58;11.60;99.90
23609;DHT22;11982;50.810;4.442;2023-04-25T10:56:30;11.60;99.90
23609;DHT22;11982;50.810;4.442;2023-04-25T10:59:08;11.90;99.90
23609;DHT22;11982;50.810;4.442;2023-04-25T11:01:43;11.90;99.90
23609;DHT22;11982;50.810;4.442;2023-04-25T11:04:28;11.90;99.90
23609;DHT22;11982;50.810;4.442;2023-04-25T11:09:41;11.70;99.90
23609;DHT22;11982;50.810;4.442;2023-04-25T11:12:10;12.00;99.90
23609;DHT22;11982;50.810;4.442;2023-04-25T11:14:37;12.00;99.90
23609;DHT22;11982;50.810;4.442;2023-04-25T11:17:02;12.00;99.90
23609;DHT22;11982;50.810;4.442;2023-04-25T11:19:29;11.80;99.90
23609;DHT22;11982;50.810;4.442;2023-04-25T11:21:59;11.20;99.90
23609;DHT22;11982;50.810;4.442;2023-04-25T11:24:34;10.90;99.90
23609;DHT22;11982;50.810;4.442;2023-04-25T11:27:01;10.50;99.90
23609;DHT22;11982;50.810;4.442;2023-04-25T11:29:30;10.20;99.90
23609;DHT22;11982;50.810;4.442;2023-04-25T11:31:57;10.00;99.90
23609;DHT22;11982;50.810;4.442;2023-04-25T11:34:24;9.90;99.90
23609;DHT22;11982;50.810;4.442;2023-04-25T11:36:51;9.90;99.90
23609;DHT22;11982;50.810;4.442;2023-04-25T11:39:21;10.30;99.90
23609;DHT22;11982;50.810;4.442;2023-04-25T11:41:47;10.80;99.90
23609;DHT22;11982;50.810;4.442;2023-04-25T11:44:15;10.90;99.90
23609;DHT22;11982;50.810;4.442;2023-04-25T11:46:42;11.10;99.90
23609;DHT22;11982;50.810;4.442;2023-04-25T11:49:08;11.50;99.90
23609;DHT22;11982;50.810;4.442;2023-04-25T11:52:00;11.60;99.90
23609;DHT22;11982;50.810;4.442;2023-04-25T11:54:25;11.80;99.90
23609;DHT22;11982;50.810;4.442;2023-04-25T11:56:51;11.40;99.90
23609;DHT22;11982;50.810;4.442;2023-04-25T11:59:23;11.10;99.90
23609;DHT22;11982;50.810;4.442;2023-04-25T12:01:50;11.00;99.90
23609;DHT22;11982;50.810;4.442;2023-04-25T12:04:23;11.50;99.90
23609;DHT22;11982;50.810;4.442;2023-04-25T12:06:51;11.00;99.90
23609;DHT22;11982;50.810;4.442;2023-04-25T12:09:33;10.90;99.90
23609;DHT22;11982;50.810;4.442;2023-04-25T12:12:00;11.30;99.90
23609;DHT22;11982;50.810;4.442;2023-04-25T12:14:34;11.40;99.90
23609;DHT22;11982;50.810;4.442;2023-04-25T12:17:01;11.70;99.90
23609;DHT22;11982;50.810;4.442;2023-04-25T12:19:35;11.90;99.90
23609;DHT22;11982;50.810;4.442;2023-04-25T12:22:02;11.60;99.90
23609;DHT22;11982;50.810;4.442;2023-04-25T12:24:34;12.10;99.90
23609;DHT22;11982;50.810;4.442;2023-04-25T12:27:04;11.90;99.90
23609;DHT22;11982;50.810;4.442;2023-04-25T12:29:32;12.00;99.90
23609;DHT22;11982;50.810;4.442;2023-04-25T12:31:58;12.00;99.90
23609;DHT22;11982;50.810;4.442;2023-04-25T12:34:25;11.80;99.90
23609;DHT22;11982;50.810;4.442;2023-04-25T12:36:51;11.80;99.90
23609;DHT22;11982;50.810;4.442;2023-04-25T12:39:21;11.60;99.90
23609;DHT22;11982;50.810;4.442;2023-04-25T12:41:50;11.50;99.90
23609;DHT22;11982;50.810;4.442;2023-04-25T12:47:41;11.40;99.90
23609;DHT22;11982;50.810;4.442;2023-04-25T12:50:07;10.80;99.90
23609;DHT22;11982;50.810;4.442;2023-04-25T12:52:32;10.90;99.90
23609;DHT22;11982;50.810;4.442;2023-04-25T12:54:58;11.40;99.90
23609;DHT22;11982;50.810;4.442;2023-04-25T12:57:24;11.30;99.90
23609;DHT22;11982;50.810;4.442;2023-04-25T12:59:49;11.40;99.90
23609;DHT22;11982;50.810;4.442;2023-04-25T13:02:15;11.30;99.90
23609;DHT22;11982;50.810;4.442;2023-04-25T13:04:41;11.60;99.90
23609;DHT22;11982;50.810;4.442;2023-04-25T13:07:06;11.50;99.90
23609;DHT22;11982;50.810;4.442;2023-04-25T13:09:32;11.50;99.90
23609;DHT22;11982;50.810;4.442;2023-04-25T13:11:58;11.50;99.90
23609;DHT22;11982;50.810;4.442;2023-04-25T13:17:46;11.10;99.90
23609;DHT22;11982;50.810;4.442;2023-04-25T13:20:13;11.10;99.90
23609;DHT22;11982;50.810;4.442;2023-04-25T13:22:41;11.20;99.90
23609;DHT22;11982;50.810;4.442;2023-04-25T13:25:07;11.40;99.90
23609;DHT22;11982;50.810;4.442;2023-04-25T13:27:34;11.30;99.90
23609;DHT22;11982;50.810;4.442;2023-04-25T13:30:01;11.00;99.90
23609;DHT22;11982;50.810;4.442;2023-04-25T13:32:33;10.70;99.90
23609;DHT22;11982;50.810;4.442;2023-04-25T13:34:59;10.60;99.90
23609;DHT22;11982;50.810;4.442;2023-04-25T13:37:24;10.60;99.90
23609;DHT22;11982;50.810;4.442;2023-04-25T13:39:50;10.80;99.90
23609;DHT22;11982;50.810;4.442;2023-04-25T13:42:16;11.00;99.90
23609;DHT22;11982;50.810;4.442;2023-04-25T13:48:03;11.40;99.90
23609;DHT22;11982;50.810;4.442;2023-04-25T13:50:29;11.60;99.90
23609;DHT22;11982;50.810;4.442;2023-04-25T13:52:55;11.60;99.90
23609;DHT22;11982;50.810;4.442;2023-04-25T13:55:21;11.90;99.90
23609;DHT22;11982;50.810;4.442;2023-04-25T13:57:47;12.20;99.90
23609;DHT22;11982;50.810;4.442;2023-04-25T14:00:13;11.80;99.90
23609;DHT22;11982;50.810;4.442;2023-04-25T14:02:39;11.40;99.90
23609;DHT22;11982;50.810;4.442;2023-04-25T14:05:05;11.50;99.90
23609;DHT22;11982;50.810;4.442;2023-04-25T14:07:31;11.20;99.90
23609;DHT22;11982;50.810;4.442;2023-04-25T14:09:57;11.30;99.90
23609;DHT22;11982;50.810;4.442;2023-04-25T14:12:23;11.50;99.90
23609;DHT22;11982;50.810;4.442;2023-04-25T14:18:11;11.30;99.90
23609;DHT22;11982;50.810;4.442;2023-04-25T14:20:37;10.90;99.90
23609;DHT22;11982;50.810;4.442;2023-04-25T14:23:02;10.80;99.90
23609;DHT22;11982;50.810;4.442;2023-04-25T14:25:29;10.60;99.90
23609;DHT22;11982;50.810;4.442;2023-04-25T14:27:55;10.60;99.90
23609;DHT22;11982;50.810;4.442;2023-04-25T14:33:43;10.80;99.90
23609;DHT22;11982;50.810;4.442;2023-04-25T14:36:09;11.20;99.90
23609;DHT22;11982;50.810;4.442;2023-04-25T14:38:35;11.40;99.90
23609;DHT22;11982;50.810;4.442;2023-04-25T14:41:01;11.30;99.90
23609;DHT22;11982;50.810;4.442;2023-04-25T14:43:27;11.60;99.90
23609;DHT22;11982;50.810;4.442;2023-04-25T14:45:53;11.80;99.90
23609;DHT22;11982;50.810;4.442;2023-04-25T14:48:19;11.80;99.90
23609;DHT22;11982;50.810;4.442;2023-04-25T14:50:45;11.70;99.90
23609;DHT22;11982;50.810;4.442;2023-04-25T14:53:12;11.80;99.90
23609;DHT22;11982;50.810;4.442;2023-04-25T14:55:38;12.10;99.90
23609;DHT22;11982;50.810;4.442;2023-04-25T14:58:04;11.70;99.90
23609;DHT22;11982;50.810;4.442;2023-04-25T15:03:51;12.00;99.90
23609;DHT22;11982;50.810;4.442;2023-04-25T15:06:17;12.20;99.90
23609;DHT22;11982;50.810;4.442;2023-04-25T15:08:43;12.10;99.90
23609;DHT22;11982;50.810;4.442;2023-04-25T15:11:09;11.50;99.90
23609;DHT22;11982;50.810;4.442;2023-04-25T15:13:36;11.60;99.90
23609;DHT22;11982;50.810;4.442;2023-04-25T15:16:02;11.70;99.90
23609;DHT22;11982;50.810;4.442;2023-04-25T15:18:28;12.00;99.90
23609;DHT22;11982;50.810;4.442;2023-04-25T15:20:53;12.30;99.90
23609;DHT22;11982;50.810;4.442;2023-04-25T15:23:20;12.50;99.90
23609;DHT22;11982;50.810;4.442;2023-04-25T15:25:46;12.70;99.90
23609;DHT22;11982;50.810;4.442;2023-04-25T15:28:12;12.60;99.90
23609;DHT22;11982;50.810;4.442;2023-04-25T15:34:03;12.40;99.90
23609;DHT22;11982;50.810;4.442;2023-04-25T15:36:29;12.40;99.90
23609;DHT22;11982;50.810;4.442;2023-04-25T15:38:56;12.40;99.90
23609;DHT22;11982;50.810;4.442;2023-04-25T15:41:23;12.00;99.90
23609;DHT22;11982;50.810;4.442;2023-04-25T15:43:49;12.00;99.90
23609;DHT22;11982;50.810;4.442;2023-04-25T15:49:37;12.30;99.90
23609;DHT22;11982;50.810;4.442;2023-04-25T15:52:02;12.20;99.90
23609;DHT22;11982;50.810;4.442;2023-04-25T15:54:28;12.10;99.90
23609;DHT22;11982;50.810;4.442;2023-04-25T15:56:53;12.10;99.90
23609;DHT22;11982;50.810;4.442;2023-04-25T15:59:19;11.70;99.90
23609;DHT22;11982;50.810;4.442;2023-04-25T16:01:45;11.70;99.90
23609;DHT22;11982;50.810;4.442;2023-04-25T16:04:11;11.60;99.90
23609;DHT22;11982;50.810;4.442;2023-04-25T16:06:36;11.70;99.90
23609;DHT22;11982;50.810;4.442;2023-04-25T16:09:03;11.70;99.90
23609;DHT22;11982;50.810;4.442;2023-04-25T16:11:29;11.90;99.90
23609;DHT22;11982;50.810;4.442;2023-04-25T16:13:55;12.00;99.90
23609;DHT22;11982;50.810;4.442;2023-04-25T16:19:42;11.30;99.90
23609;DHT22;11982;50.810;4.442;2023-04-25T16:22:08;10.90;99.90